createdAt,value
2022-10-20T00:01:50.479Z,14.82
2022-10-20T00:04:17.064Z,14.79
2022-10-20T00:06:43.651Z,14.77
2022-10-20T00:09:10.310Z,14.76
2022-10-20T00:11:36.778Z,14.77
2022-10-20T00:14:03.767Z,14.76
2022-10-20T00:16:31.964Z,14.75
2022-10-20T00:18:58.904Z,14.63
2022-10-20T00:21:27.118Z,14.68
2022-10-20T00:23:53.923Z,14.71
2022-10-20T00:26:23.699Z,14.68
2022-10-20T00:28:51.404Z,14.67
2022-10-20T00:31:20.157Z,14.63
2022-10-20T00:33:47.656Z,14.61
2022-10-20T00:36:17.392Z,14.60
2022-10-20T00:38:44.852Z,14.61
2022-10-20T00:41:16.553Z,14.59
2022-10-20T00:43:50.608Z,14.59
2022-10-20T00:46:21.488Z,14.56
2022-10-20T00:48:52.351Z,14.58
2022-10-20T00:51:22.477Z,14.59
2022-10-20T00:53:52.214Z,14.61
2022-10-20T00:56:19.132Z,14.61
2022-10-20T00:58:46.182Z,14.61
2022-10-20T01:01:13.549Z,14.60
2022-10-20T01:03:45.517Z,14.59
2022-10-20T01:06:14.779Z,14.58
2022-10-20T01:08:41.463Z,14.59
2022-10-20T01:11:19.942Z,14.59
2022-10-20T01:13:52.458Z,14.57
2022-10-20T01:16:32.664Z,14.58
2022-10-20T01:19:13.944Z,14.55
2022-10-20T01:22:12.520Z,14.53
2022-10-20T01:24:48.143Z,14.56
2022-10-20T01:27:34.803Z,14.52
2022-10-20T01:30:04.006Z,14.55
2022-10-20T01:32:38.408Z,14.53
2022-10-20T01:35:21.669Z,14.50
2022-10-20T01:38:12.029Z,14.46
2022-10-20T01:40:52.398Z,14.45
2022-10-20T01:43:21.687Z,14.42
2022-10-20T01:45:50.975Z,14.44
2022-10-20T01:48:22.698Z,14.42
2022-10-20T01:50:50.742Z,14.42
2022-10-20T01:53:17.389Z,14.40
2022-10-20T01:55:44.091Z,14.41
2022-10-20T01:58:28.868Z,14.37
2022-10-20T02:01:21.850Z,14.36
2022-10-20T02:03:56.604Z,14.36
2022-10-20T02:06:35.129Z,14.36
2022-10-20T02:09:06.947Z,14.33
2022-10-20T02:11:55.003Z,14.33
2022-10-20T02:14:22.743Z,14.32
2022-10-20T02:16:59.111Z,14.30
2022-10-20T02:19:31.090Z,14.29
2022-10-20T02:21:58.124Z,14.30
2022-10-20T02:24:29.470Z,14.29
2022-10-20T02:26:59.604Z,14.28
2022-10-20T02:29:30.794Z,14.27
2022-10-20T02:31:58.167Z,14.26
2022-10-20T02:34:27.807Z,14.24
2022-10-20T02:36:59.015Z,14.28
2022-10-20T02:39:26.637Z,14.28
2022-10-20T02:41:53.186Z,14.26
2022-10-20T02:44:19.645Z,14.28
2022-10-20T02:46:46.125Z,14.27
2022-10-20T02:49:12.600Z,14.28
2022-10-20T02:51:39.107Z,14.27
2022-10-20T02:54:05.635Z,14.27
2022-10-20T02:56:32.155Z,14.28
2022-10-20T02:58:58.714Z,14.29
2022-10-20T03:01:25.459Z,14.30
2022-10-20T03:03:52.059Z,14.28
2022-10-20T03:06:18.623Z,14.29
2022-10-20T03:08:45.243Z,14.25
2022-10-20T03:11:11.719Z,14.24
2022-10-20T03:13:38.249Z,14.21
2022-10-20T03:16:04.871Z,14.18
2022-10-20T03:18:31.459Z,14.15
2022-10-20T03:20:58.037Z,14.14
2022-10-20T03:23:24.623Z,14.13
2022-10-20T03:25:51.189Z,14.11
2022-10-20T03:28:17.945Z,14.09
2022-10-20T03:30:44.551Z,14.06
2022-10-20T03:33:11.004Z,14.05
2022-10-20T03:35:37.499Z,14.03
2022-10-20T03:38:04.044Z,14.00
2022-10-20T03:40:30.623Z,13.99
2022-10-20T03:42:57.231Z,13.99
2022-10-20T03:45:23.723Z,13.96
2022-10-20T03:47:50.310Z,13.97
2022-10-20T03:50:16.831Z,13.96
2022-10-20T03:52:43.352Z,13.95
2022-10-20T03:55:09.950Z,13.95
2022-10-20T03:57:36.804Z,13.95
2022-10-20T04:00:03.849Z,13.95
2022-10-20T04:02:43.777Z,13.94
2022-10-20T04:05:14.730Z,13.94
2022-10-20T04:07:41.638Z,13.94
2022-10-20T04:10:09.172Z,13.93
2022-10-20T04:12:36.029Z,13.91
2022-10-20T04:15:04.557Z,13.91
2022-10-20T04:17:31.192Z,13.87
2022-10-20T04:19:57.759Z,13.86
2022-10-20T04:22:24.346Z,13.84
2022-10-20T04:24:50.858Z,13.82
2022-10-20T04:27:17.620Z,13.79
2022-10-20T04:29:44.166Z,13.79
2022-10-20T04:32:10.835Z,13.78
2022-10-20T04:34:37.322Z,13.77
2022-10-20T04:37:04.075Z,13.76
2022-10-20T04:39:30.745Z,13.74
2022-10-20T04:41:57.222Z,13.74
2022-10-20T04:44:23.696Z,13.73
2022-10-20T04:46:50.332Z,13.73
2022-10-20T04:49:16.921Z,13.73
2022-10-20T04:51:43.368Z,13.74
2022-10-20T04:54:09.906Z,13.74
2022-10-20T04:56:36.434Z,13.75
2022-10-20T04:59:04.051Z,13.77
2022-10-20T05:01:31.392Z,13.77
2022-10-20T05:03:58.338Z,13.76
2022-10-20T05:06:27.167Z,13.75
2022-10-20T05:08:56.760Z,13.74
2022-10-20T05:11:25.121Z,13.74
2022-10-20T05:13:51.827Z,13.72
2022-10-20T05:16:18.802Z,13.70
2022-10-20T05:18:46.811Z,13.67
2022-10-20T05:21:19.703Z,13.63
2022-10-20T05:23:46.339Z,13.61
2022-10-20T05:26:16.751Z,13.60
2022-10-20T05:28:46.076Z,13.57
2022-10-20T05:31:13.463Z,13.57
2022-10-20T05:33:43.559Z,13.58
2022-10-20T05:36:10.882Z,13.59
2022-10-20T05:38:37.409Z,13.60
2022-10-20T05:41:12.557Z,13.61
2022-10-20T05:43:39.386Z,13.62
2022-10-20T05:46:06.592Z,13.62
2022-10-20T05:48:33.431Z,13.61
2022-10-20T05:51:13.770Z,13.61
2022-10-20T05:53:42.623Z,13.60
2022-10-20T05:56:12.170Z,13.58
2022-10-20T05:58:39.150Z,13.57
2022-10-20T06:01:08.320Z,13.57
2022-10-20T06:03:35.279Z,13.55
2022-10-20T06:06:02.987Z,13.53
2022-10-20T06:08:33.780Z,13.52
2022-10-20T06:11:04.758Z,13.49
2022-10-20T06:13:31.805Z,13.49
2022-10-20T06:16:06.313Z,13.46
2022-10-20T06:18:33.424Z,13.45
2022-10-20T06:21:01.917Z,13.43
2022-10-20T06:23:28.828Z,13.42
2022-10-20T06:25:55.661Z,13.41
2022-10-20T06:28:22.197Z,13.40
2022-10-20T06:30:48.693Z,13.38
2022-10-20T06:33:15.256Z,13.36
2022-10-20T06:35:41.923Z,13.35
2022-10-20T06:38:08.403Z,13.34
2022-10-20T06:40:34.871Z,13.33
2022-10-20T06:43:01.480Z,13.30
2022-10-20T06:45:28.083Z,13.29
2022-10-20T06:47:54.571Z,13.29
2022-10-20T06:50:21.449Z,13.31
2022-10-20T06:52:48.051Z,13.29
2022-10-20T06:55:14.675Z,13.28
2022-10-20T06:57:41.211Z,13.28
2022-10-20T07:00:08.564Z,13.29
2022-10-20T07:02:38.014Z,13.31
2022-10-20T07:05:05.237Z,13.32
2022-10-20T07:07:31.844Z,13.34
2022-10-20T07:09:58.441Z,13.36
2022-10-20T07:12:25.048Z,13.36
2022-10-20T07:14:51.609Z,13.41
2022-10-20T07:17:18.046Z,13.44
2022-10-20T07:19:44.609Z,13.49
2022-10-20T07:22:11.060Z,13.52
2022-10-20T07:24:37.503Z,13.55
2022-10-20T07:27:04.072Z,13.57
2022-10-20T07:29:30.667Z,13.60
2022-10-20T07:31:59.920Z,13.63
2022-10-20T07:34:28.283Z,13.67
2022-10-20T07:36:56.581Z,13.71
2022-10-20T07:39:23.558Z,13.75
2022-10-20T07:41:50.118Z,13.81
2022-10-20T07:44:17.387Z,13.81
2022-10-20T07:46:44.391Z,13.84
2022-10-20T07:51:57.722Z,13.89
2022-10-20T07:54:24.274Z,13.94
2022-10-20T07:56:51.400Z,13.99
2022-10-20T07:59:18.921Z,14.03
2022-10-20T08:01:46.523Z,14.09
2022-10-20T08:04:13.156Z,14.10
2022-10-20T08:06:39.764Z,14.15
2022-10-20T08:09:06.967Z,14.21
2022-10-20T08:11:33.791Z,14.24
2022-10-20T08:14:00.350Z,14.29
2022-10-20T08:16:29.871Z,14.33
2022-10-20T08:19:10.110Z,14.36
2022-10-20T08:21:36.651Z,14.42
2022-10-20T08:24:03.246Z,14.44
2022-10-20T08:26:29.897Z,14.51
2022-10-20T08:28:56.498Z,14.57
2022-10-20T08:31:23.436Z,14.61
2022-10-20T08:33:52.915Z,14.69
2022-10-20T08:36:20.588Z,14.75
2022-10-20T08:38:47.868Z,14.79
2022-10-20T08:41:34.539Z,14.85
2022-10-20T08:44:03.998Z,14.92
2022-10-20T08:46:36.976Z,14.98
2022-10-20T08:49:07.725Z,15.01
2022-10-20T08:51:36.781Z,15.03
2022-10-20T08:54:04.694Z,15.05
2022-10-20T08:56:34.644Z,15.06
2022-10-20T08:59:02.201Z,15.08
2022-10-20T09:01:37.838Z,15.11
2022-10-20T09:04:19.683Z,15.17
2022-10-20T09:06:50.591Z,15.24
2022-10-20T09:09:21.581Z,15.30
2022-10-20T09:11:48.873Z,15.37
2022-10-20T09:14:15.442Z,15.38
2022-10-20T09:16:59.312Z,15.41
2022-10-20T09:19:27.596Z,15.40
2022-10-20T09:21:58.478Z,15.34
2022-10-20T09:24:28.268Z,15.35
2022-10-20T09:26:59.186Z,15.33
2022-10-20T09:29:37.844Z,15.32
2022-10-20T09:32:45.002Z,15.28
2022-10-20T09:35:14.905Z,15.31
2022-10-20T09:37:43.469Z,15.34
2022-10-20T09:40:15.181Z,15.36
2022-10-20T09:42:50.691Z,15.42
2022-10-20T09:45:23.970Z,15.47
2022-10-20T09:47:54.402Z,15.54
2022-10-20T09:50:27.398Z,15.61
2022-10-20T09:52:54.927Z,15.69
2022-10-20T09:55:31.783Z,15.70
2022-10-20T09:58:00.486Z,15.79
2022-10-20T10:00:37.557Z,15.87
2022-10-20T10:03:17.262Z,15.93
2022-10-20T10:05:43.836Z,16.05
2022-10-20T10:08:15.295Z,16.16
2022-10-20T10:10:44.622Z,16.25
2022-10-20T10:13:26.373Z,16.33
2022-10-20T10:16:08.170Z,16.41
2022-10-20T10:18:36.282Z,16.54
2022-10-20T10:21:05.394Z,16.54
2022-10-20T10:23:35.054Z,16.75
2022-10-20T10:26:03.372Z,16.89
2022-10-20T10:28:38.971Z,16.97
2022-10-20T10:31:19.543Z,17.09
2022-10-20T10:33:46.835Z,17.20
2022-10-20T10:36:29.650Z,17.28
2022-10-20T10:38:56.906Z,17.39
2022-10-20T10:41:34.740Z,17.51
2022-10-20T10:44:26.163Z,17.63
2022-10-20T10:47:21.825Z,17.77
2022-10-20T10:49:55.533Z,17.92
2022-10-20T10:52:31.518Z,18.07
2022-10-20T10:55:48.388Z,18.22
2022-10-20T10:58:31.327Z,18.34
2022-10-20T11:01:19.843Z,18.45
2022-10-20T11:04:10.491Z,18.55
2022-10-20T11:06:44.206Z,18.64
2022-10-20T11:09:38.571Z,18.69
2022-10-20T11:12:42.453Z,18.78
2022-10-20T11:15:39.241Z,18.88
2022-10-20T11:18:27.579Z,18.97
2022-10-20T11:21:29.184Z,19.03
2022-10-20T11:24:16.941Z,19.09
2022-10-20T11:26:44.712Z,19.06
2022-10-20T11:29:30.006Z,19.18
2022-10-20T11:32:14.501Z,19.22
2022-10-20T11:34:52.669Z,19.23
2022-10-20T11:37:26.005Z,19.24
2022-10-20T11:40:09.256Z,19.24
2022-10-20T11:42:46.032Z,19.21
2022-10-20T11:45:29.572Z,19.23
2022-10-20T11:48:04.472Z,19.31
2022-10-20T11:50:32.086Z,19.36
2022-10-20T11:53:21.771Z,19.38
2022-10-20T11:55:57.030Z,19.47
2022-10-20T11:58:49.652Z,19.50
2022-10-20T12:01:39.308Z,19.56
2022-10-20T12:04:08.500Z,19.57
2022-10-20T12:06:47.385Z,19.54
2022-10-20T12:09:26.675Z,19.56
2022-10-20T12:12:05.086Z,19.56
2022-10-20T12:15:01.673Z,19.58
2022-10-20T12:17:34.503Z,19.63
2022-10-20T12:20:22.447Z,19.63
2022-10-20T12:22:54.987Z,19.68
2022-10-20T12:25:24.561Z,19.69
2022-10-20T12:28:22.087Z,19.71
2022-10-20T12:30:59.095Z,19.74
2022-10-20T12:33:36.247Z,19.78
2022-10-20T12:36:17.825Z,19.78
2022-10-20T12:39:07.449Z,19.84
2022-10-20T12:41:39.449Z,19.93
2022-10-20T12:44:14.886Z,20.02
2022-10-20T12:46:57.051Z,20.10
2022-10-20T12:49:36.044Z,20.17
2022-10-20T12:52:04.696Z,20.27
2022-10-20T12:54:39.364Z,20.34
2022-10-20T12:57:36.834Z,20.43
2022-10-20T13:00:20.203Z,20.52
2022-10-20T13:02:57.094Z,20.56
2022-10-20T13:05:38.355Z,20.55
2022-10-20T13:08:19.812Z,20.55
2022-10-20T13:10:46.997Z,20.51
2022-10-20T13:13:19.638Z,20.51
2022-10-20T13:15:46.041Z,20.53
2022-10-20T13:18:12.472Z,20.48
2022-10-20T13:20:50.918Z,20.47
2022-10-20T13:23:30.885Z,20.42
2022-10-20T13:26:03.144Z,20.40
2022-10-20T13:28:32.142Z,20.40
2022-10-20T13:31:12.559Z,20.40
2022-10-20T13:34:04.622Z,20.42
2022-10-20T13:36:37.621Z,20.41
2022-10-20T13:39:23.165Z,20.44
2022-10-20T13:41:55.985Z,20.48
2022-10-20T13:44:30.525Z,20.53
2022-10-20T13:47:25.191Z,20.58
2022-10-20T13:50:05.287Z,20.61
2022-10-20T13:52:37.953Z,20.61
2022-10-20T13:55:07.438Z,20.58
2022-10-20T13:57:35.903Z,20.55
2022-10-20T14:00:16.734Z,20.52
2022-10-20T14:02:53.100Z,20.48
2022-10-20T14:05:21.895Z,20.49
2022-10-20T14:07:48.839Z,20.47
2022-10-20T14:10:43.984Z,20.46
2022-10-20T14:13:15.724Z,20.43
2022-10-20T14:15:48.465Z,20.42
2022-10-20T14:18:27.038Z,20.40
2022-10-20T14:20:59.117Z,20.39
2022-10-20T14:23:28.350Z,20.38
2022-10-20T14:25:56.807Z,20.39
2022-10-20T14:28:25.241Z,20.36
2022-10-20T14:30:52.407Z,20.36
2022-10-20T14:33:19.233Z,20.33
2022-10-20T14:35:53.063Z,20.33
2022-10-20T14:38:24.088Z,20.32
2022-10-20T14:40:53.500Z,20.31
2022-10-20T14:43:45.536Z,20.28
2022-10-20T14:46:22.569Z,20.31
2022-10-20T14:48:50.716Z,20.30
2022-10-20T14:51:32.543Z,20.26
2022-10-20T14:54:20.147Z,20.25
2022-10-20T14:56:56.135Z,20.23
2022-10-20T14:59:28.328Z,20.19
2022-10-20T15:02:05.187Z,20.12
2022-10-20T15:04:33.664Z,20.08
2022-10-20T15:07:06.634Z,20.02
2022-10-20T15:09:39.570Z,19.95
2022-10-20T15:12:32.096Z,19.86
2022-10-20T15:15:06.407Z,19.80
2022-10-20T15:17:39.027Z,19.74
2022-10-20T15:20:36.854Z,19.63
2022-10-20T15:23:10.403Z,19.55
2022-10-20T15:25:53.212Z,19.48
2022-10-20T15:28:46.253Z,19.43
2022-10-20T15:31:12.664Z,19.37
2022-10-20T15:33:39.938Z,19.30
2022-10-20T15:36:14.319Z,19.24
2022-10-20T15:38:41.792Z,19.20
2022-10-20T15:41:15.129Z,19.14
2022-10-20T15:43:42.388Z,19.12
2022-10-20T15:46:11.271Z,19.06
2022-10-20T15:48:38.084Z,19.05
2022-10-20T15:51:05.215Z,18.96
2022-10-20T15:53:31.701Z,18.84
2022-10-20T15:55:58.167Z,18.72
2022-10-20T15:58:24.705Z,18.61
2022-10-20T16:00:51.194Z,18.51
2022-10-20T16:03:18.861Z,18.42
2022-10-20T16:05:46.970Z,18.32
2022-10-20T16:10:59.970Z,18.16
2022-10-20T16:13:26.529Z,18.10
2022-10-20T16:15:53.079Z,18.02
2022-10-20T16:18:19.621Z,17.98
2022-10-20T16:20:46.153Z,17.91
2022-10-20T16:23:12.604Z,17.85
2022-10-20T16:25:40.204Z,17.79
2022-10-20T16:28:07.213Z,17.74
2022-10-20T16:30:33.737Z,17.69
2022-10-20T16:33:00.238Z,17.64
2022-10-20T16:35:26.842Z,17.58
2022-10-20T16:37:53.322Z,17.53
2022-10-20T16:40:19.879Z,17.50
2022-10-20T16:42:46.352Z,17.45
2022-10-20T16:45:12.928Z,17.41
2022-10-20T16:47:39.914Z,17.37
2022-10-20T16:50:06.906Z,17.32
2022-10-20T16:52:33.471Z,17.28
2022-10-20T16:55:00.141Z,17.25
2022-10-20T16:57:26.655Z,17.19
2022-10-20T16:59:53.193Z,17.18
2022-10-20T17:02:19.828Z,17.14
2022-10-20T17:04:49.995Z,17.11
2022-10-20T17:07:17.515Z,17.09
2022-10-20T17:09:44.040Z,17.02
2022-10-20T17:12:10.641Z,17.00
2022-10-20T17:14:39.920Z,16.97
2022-10-20T17:17:06.786Z,16.92
2022-10-20T17:19:33.240Z,16.89
2022-10-20T17:21:59.806Z,16.84
2022-10-20T17:24:26.513Z,16.79
2022-10-20T17:26:53.023Z,16.74
2022-10-20T17:29:22.358Z,16.68
2022-10-20T17:31:51.745Z,16.63
2022-10-20T17:34:18.268Z,16.59
2022-10-20T17:36:44.817Z,16.55
2022-10-20T17:39:14.662Z,16.52
2022-10-20T17:41:41.196Z,16.51
2022-10-20T17:44:07.680Z,16.48
2022-10-20T17:46:34.304Z,16.46
2022-10-20T17:49:01.627Z,16.43
2022-10-20T17:51:31.847Z,16.42
2022-10-20T17:54:01.135Z,16.40
2022-10-20T17:56:36.373Z,16.38
2022-10-20T17:59:05.159Z,16.37
2022-10-20T18:01:34.224Z,16.37
2022-10-20T18:04:10.774Z,16.35
2022-10-20T18:06:38.007Z,16.35
2022-10-20T18:09:10.365Z,16.32
2022-10-20T18:11:38.679Z,16.31
2022-10-20T18:14:05.848Z,16.29
2022-10-20T18:16:34.752Z,16.25
2022-10-20T18:19:01.484Z,16.22
2022-10-20T18:21:29.759Z,16.19
2022-10-20T18:23:58.677Z,16.15
2022-10-20T18:26:25.673Z,16.12
2022-10-20T18:28:52.288Z,16.08
2022-10-20T18:31:21.538Z,16.05
2022-10-20T18:34:02.554Z,16.00
2022-10-20T18:36:33.615Z,15.96
2022-10-20T18:39:00.540Z,15.92
2022-10-20T18:41:31.917Z,15.89
2022-10-20T18:44:02.389Z,15.85
2022-10-20T18:46:31.003Z,15.82
2022-10-20T18:48:58.144Z,15.80
2022-10-20T18:51:24.711Z,15.77
2022-10-20T18:53:54.000Z,15.75
2022-10-20T18:56:22.054Z,15.73
2022-10-20T18:58:54.736Z,15.70
2022-10-20T19:01:24.879Z,15.68
2022-10-20T19:03:53.647Z,15.65
2022-10-20T19:06:22.929Z,15.63
2022-10-20T19:08:53.281Z,15.60
2022-10-20T19:11:22.178Z,15.60
2022-10-20T19:13:49.267Z,15.58
2022-10-20T19:16:18.606Z,15.56
2022-10-20T19:18:46.563Z,15.54
2022-10-20T19:21:13.971Z,15.53
2022-10-20T19:23:43.417Z,15.51
2022-10-20T19:26:21.145Z,15.51
2022-10-20T19:28:58.847Z,15.49
2022-10-20T19:31:32.042Z,15.48
2022-10-20T19:34:04.950Z,15.48
2022-10-20T19:36:31.733Z,15.47
2022-10-20T19:38:58.340Z,15.46
2022-10-20T19:41:25.528Z,15.47
2022-10-20T19:43:52.397Z,15.44
2022-10-20T19:46:20.436Z,15.44
2022-10-20T19:48:47.991Z,15.41
2022-10-20T19:51:16.070Z,15.39
2022-10-20T19:53:43.026Z,15.39
2022-10-20T19:56:09.972Z,15.38
2022-10-20T19:58:39.379Z,15.36
2022-10-20T20:01:09.477Z,15.35
2022-10-20T20:03:36.404Z,15.23
2022-10-20T20:06:04.987Z,15.31
2022-10-20T20:08:32.051Z,15.32
2022-10-20T20:10:59.503Z,15.29
2022-10-20T20:13:26.224Z,15.26
2022-10-20T20:15:53.296Z,15.24
2022-10-20T20:18:19.940Z,15.23
2022-10-20T20:20:48.184Z,15.23
2022-10-20T20:23:15.791Z,15.21
2022-10-20T20:25:44.739Z,15.20
2022-10-20T20:28:11.689Z,15.18
2022-10-20T20:30:38.380Z,15.19
2022-10-20T20:33:04.873Z,15.19
2022-10-20T20:35:31.543Z,15.19
2022-10-20T20:37:58.565Z,15.18
2022-10-20T20:40:25.730Z,15.17
2022-10-20T20:42:52.798Z,15.17
2022-10-20T20:45:22.419Z,15.15
2022-10-20T20:47:49.194Z,15.13
2022-10-20T20:50:15.973Z,15.11
2022-10-20T20:52:42.668Z,15.08
2022-10-20T20:55:09.574Z,15.06
2022-10-20T20:57:36.460Z,15.03
2022-10-20T21:00:04.432Z,14.99
2022-10-20T21:02:30.949Z,14.94
2022-10-20T21:04:57.592Z,14.88
2022-10-20T21:07:24.135Z,14.82
2022-10-20T21:09:50.607Z,14.75
2022-10-20T21:12:17.078Z,14.69
2022-10-20T21:14:43.575Z,14.64
2022-10-20T21:17:10.101Z,14.58
2022-10-20T21:19:36.727Z,14.51
2022-10-20T21:22:03.402Z,14.47
2022-10-20T21:24:30.002Z,14.42
2022-10-20T21:26:57.818Z,14.35
2022-10-20T21:29:24.605Z,14.32
2022-10-20T21:31:51.161Z,14.29
2022-10-20T21:34:17.671Z,14.26
2022-10-20T21:36:44.256Z,14.23
2022-10-20T21:39:13.127Z,14.22
2022-10-20T21:41:39.697Z,14.20
2022-10-20T21:44:07.396Z,14.19
2022-10-20T21:46:38.875Z,14.17
2022-10-20T21:49:07.934Z,14.18
2022-10-20T21:51:36.599Z,14.17
2022-10-20T21:54:12.378Z,14.16
2022-10-20T21:56:40.888Z,14.18
2022-10-20T21:59:12.265Z,14.17
2022-10-20T22:01:38.771Z,14.18
2022-10-20T22:04:05.298Z,14.20
2022-10-20T22:06:31.832Z,14.22
2022-10-20T22:08:59.038Z,14.23
2022-10-20T22:11:28.897Z,14.23
2022-10-20T22:13:56.111Z,14.24
2022-10-20T22:16:28.390Z,14.24
2022-10-20T22:19:00.013Z,14.25
2022-10-20T22:21:28.097Z,14.27
2022-10-20T22:23:56.556Z,14.24
2022-10-20T22:26:26.304Z,14.25
2022-10-20T22:28:53.328Z,14.25
2022-10-20T22:31:19.954Z,14.26
2022-10-20T22:33:46.565Z,14.27
2022-10-20T22:36:13.032Z,14.27
2022-10-20T22:38:39.512Z,14.28
2022-10-20T22:41:06.187Z,14.28
2022-10-20T22:43:32.828Z,14.29
2022-10-20T22:45:59.264Z,14.29
2022-10-20T22:48:26.135Z,14.29
2022-10-20T22:50:52.898Z,14.31
2022-10-20T22:53:19.754Z,14.32
2022-10-20T22:55:47.028Z,14.34
2022-10-20T22:58:13.572Z,14.35
2022-10-20T23:00:41.442Z,14.37
2022-10-20T23:03:08.022Z,14.39
2022-10-20T23:05:34.703Z,14.43
2022-10-20T23:08:01.213Z,14.46
2022-10-20T23:10:28.022Z,14.49
2022-10-20T23:12:54.566Z,14.50
2022-10-20T23:15:21.212Z,14.54
2022-10-20T23:17:47.702Z,14.57
2022-10-20T23:20:14.341Z,14.59
2022-10-20T23:22:40.890Z,14.61
2022-10-20T23:25:07.840Z,14.61
2022-10-20T23:27:35.578Z,14.62
2022-10-20T23:30:02.399Z,14.63
2022-10-20T23:32:28.921Z,14.65
2022-10-20T23:34:55.442Z,14.66
2022-10-20T23:37:22.177Z,14.67
2022-10-20T23:39:48.872Z,14.69
2022-10-20T23:42:15.415Z,14.70
2022-10-20T23:44:41.934Z,14.73
2022-10-20T23:47:08.550Z,14.73
2022-10-20T23:49:35.102Z,14.75
2022-10-20T23:52:01.630Z,14.75
2022-10-20T23:54:28.135Z,14.77
2022-10-20T23:56:54.605Z,14.78
2022-10-20T23:59:21.054Z,14.79
